Time;durP1;ratioP1;P1;durP2;ratioP2;P2;SDS_P1;SDS_P2;PMS_P1;PMS_P2;Temp;Humidity;BMP_temperature;BMP_pressure;BME280_temperature;BME280_humidity;BME280_pressure;Samples;Min_cycle;Max_cycle;Signal;HPM_P1;HPM_P2
2023/01/23 00:00:48;;;;;;;21.00;10.70;;;;;;;;;;765397;181;918427;-65
2023/01/23 00:03:14;;;;;;;35.27;17.40;;;;;;;;;;762544;180;918715;-64
2023/01/23 00:05:40;;;;;;;46.37;17.57;;;;;;;;;;768109;180;920297;-65
2023/01/23 00:08:06;;;;;;;39.20;21.30;;;;;;;;;;764246;184;918494;-64
2023/01/23 00:10:31;;;;;;;21.73;12.13;;;;;;;;;;766399;180;918991;-64
2023/01/23 00:12:57;;;;;;;39.53;21.60;;;;;;;;;;778121;180;816541;-64
2023/01/23 00:15:23;;;;;;;47.60;22.33;;;;;;;;;;778054;180;919361;-66
2023/01/23 00:17:49;;;;;;;26.13;13.60;;;;;;;;;;759389;182;918643;-64
2023/01/23 00:20:15;;;;;;;38.67;13.33;;;;;;;;;;761388;181;923452;-67
2023/01/23 00:22:41;;;;;;;27.37;15.70;;;;;;;;;;775255;181;922392;-65
2023/01/23 00:25:07;;;;;;;25.70;12.67;;;;;;;;;;769329;181;919582;-64
2023/01/23 00:27:33;;;;;;;39.03;16.70;;;;;;;;;;768616;182;919473;-64
2023/01/23 00:29:59;;;;;;;39.17;21.27;;;;;;;;;;771869;181;919681;-65
2023/01/23 00:32:24;;;;;;;39.50;19.50;;;;;;;;;;760876;182;918827;-65
2023/01/23 00:34:50;;;;;;;28.00;15.17;;;;;;;;;;761605;182;918666;-64
2023/01/23 00:37:16;;;;;;;43.10;22.30;;;;;;;;;;771064;179;817029;-65
2023/01/23 00:39:42;;;;;;;31.83;12.97;;;;;;;;;;780513;180;817542;-66
2023/01/23 00:42:08;;;;;;;33.47;19.03;;;;;;;;;;769209;180;941392;-64
2023/01/23 00:44:34;;;;;;;42.63;21.70;;;;;;;;;;768758;180;919665;-65
2023/01/23 00:46:59;;;;;;;39.13;17.27;;;;;;;;;;778733;179;918221;-63
2023/01/23 00:49:25;;;;;;;29.83;15.43;;;;;;;;;;775182;180;919368;-65
2023/01/23 00:51:53;;;;;;;49.63;22.07;;;;;;;;;;769194;180;919600;-64
2023/01/23 00:54:18;;;;;;;40.40;21.87;;;;;;;;;;773880;181;918260;-64
2023/01/23 00:56:43;;;;;;;29.35;15.55;;;;;;;;;;769969;180;917976;-64
2023/01/23 00:59:09;;;;;;;41.43;18.93;;;;;;;;;;771717;181;913926;-65
2023/01/23 01:01:35;;;;;;;26.53;12.37;;;;;;;;;;771538;181;917607;-65
2023/01/23 01:04:00;;;;;;;24.52;14.82;;;;;;;;;;766413;182;918195;-66
2023/01/23 01:06:28;;;;;;;29.60;16.73;;;;;;;;;;762355;182;914880;-64
2023/01/23 01:08:52;;;;;;;41.83;22.90;;;;;;;;;;768311;181;919169;-65
2023/01/23 01:11:18;;;;;;;31.47;15.50;;;;;;;;;;773903;180;918036;-64
2023/01/23 01:13:44;;;;;;;38.27;19.27;;;;;;;;;;774799;180;919198;-64
2023/01/23 01:16:10;;;;;;;31.87;15.02;;;;;;;;;;774443;180;929383;-64
2023/01/23 01:18:35;;;;;;;39.90;19.57;;;;;;;;;;780430;180;918560;-64
2023/01/23 01:21:01;;;;;;;27.30;14.40;;;;;;;;;;769739;180;918897;-65
2023/01/23 01:23:27;;;;;;;32.60;17.27;;;;;;;;;;770669;181;920544;-66
2023/01/23 01:25:53;;;;;;;50.23;22.00;;;;;;;;;;770350;181;942973;-64
2023/01/23 01:28:19;;;;;;;41.67;17.12;;;;;;;;;;764331;184;818011;-64
2023/01/23 01:30:45;;;;;;;36.63;14.67;;;;;;;;;;761774;181;918052;-65
2023/01/23 01:33:11;;;;;;;28.53;15.20;;;;;;;;;;771479;180;918335;-66
2023/01/23 01:35:36;;;;;;;27.97;14.60;;;;;;;;;;781380;180;917974;-64
2023/01/23 01:38:02;;;;;;;28.17;13.33;;;;;;;;;;765475;181;918445;-65
2023/01/23 01:40:28;;;;;;;24.33;13.87;;;;;;;;;;768968;180;943093;-66
2023/01/23 01:42:54;;;;;;;34.60;18.50;;;;;;;;;;781137;180;918915;-64
2023/01/23 01:45:26;;;;;;;23.83;12.40;;;;;;;;;;773457;180;919262;-64
2023/01/23 01:47:51;;;;;;;32.30;16.97;;;;;;;;;;769629;179;919289;-65
2023/01/23 01:50:17;;;;;;;29.30;12.90;;;;;;;;;;770537;180;920060;-64
2023/01/23 01:52:43;;;;;;;22.37;11.73;;;;;;;;;;770253;181;816574;-66
2023/01/23 01:55:09;;;;;;;34.00;19.70;;;;;;;;;;763440;181;919177;-66
2023/01/23 01:57:35;;;;;;;20.57;12.90;;;;;;;;;;764484;181;919039;-64
2023/01/23 02:00:10;;;;;;;23.70;14.17;;;;;;;;;;774156;181;918410;-66
2023/01/23 02:02:39;;;;;;;26.33;15.00;;;;;;;;;;772470;180;918514;-65
2023/01/23 02:05:05;;;;;;;33.03;18.90;;;;;;;;;;766596;181;942898;-64
2023/01/23 02:07:37;;;;;;;11.90;7.83;;;;;;;;;;771257;180;714168;-66
2023/01/23 02:10:03;;;;;;;29.12;16.40;;;;;;;;;;775290;180;900175;-66
2023/01/23 02:12:30;;;;;;;29.40;14.00;;;;;;;;;;773534;182;816096;-66
2023/01/23 02:14:55;;;;;;;33.93;15.07;;;;;;;;;;770438;181;917936;-67
2023/01/23 02:17:21;;;;;;;32.63;15.83;;;;;;;;;;772704;180;919146;-65
2023/01/23 02:19:48;;;;;;;26.33;12.90;;;;;;;;;;778300;180;817423;-66
2023/01/23 02:22:14;;;;;;;32.50;16.97;;;;;;;;;;772054;181;816517;-65
2023/01/23 02:24:41;;;;;;;34.40;17.07;;;;;;;;;;767434;181;1025028;-67
2023/01/23 02:27:07;;;;;;;34.17;21.70;;;;;;;;;;776597;180;917199;-67
2023/01/23 02:29:38;;;;;;;19.23;11.00;;;;;;;;;;773554;179;918636;-64
2023/01/23 02:32:04;;;;;;;26.00;10.33;;;;;;;;;;770352;180;918220;-65
2023/01/23 02:34:30;;;;;;;28.80;14.30;;;;;;;;;;771075;180;919407;-65
2023/01/23 02:36:56;;;;;;;24.00;14.43;;;;;;;;;;776358;181;923158;-64
2023/01/23 02:39:22;;;;;;;29.65;16.98;;;;;;;;;;774759;180;920875;-66
2023/01/23 02:41:48;;;;;;;22.30;11.80;;;;;;;;;;771409;181;916223;-65
2023/01/23 02:44:14;;;;;;;24.30;12.97;;;;;;;;;;770991;181;919309;-64
2023/01/23 02:46:40;;;;;;;29.80;18.77;;;;;;;;;;775564;180;919532;-65
2023/01/23 02:49:06;;;;;;;25.87;13.60;;;;;;;;;;775357;180;918929;-64
2023/01/23 02:51:32;;;;;;;26.52;10.50;;;;;;;;;;774841;180;922451;-65
2023/01/23 02:53:58;;;;;;;22.57;10.90;;;;;;;;;;768334;180;920657;-65
2023/01/23 02:56:23;;;;;;;53.53;19.77;;;;;;;;;;770872;181;921649;-67
2023/01/23 03:01:21;;;;;;;17.53;13.10;;;;;;;;;;778302;180;919501;-66
2023/01/23 03:03:50;;;;;;;27.48;13.05;;;;;;;;;;761271;180;919181;-66
2023/01/23 03:06:13;;;;;;;23.00;11.50;;;;;;;;;;774924;180;918888;-65
2023/01/23 03:08:46;;;;;;;27.37;12.33;;;;;;;;;;771656;180;816679;-66
2023/01/23 03:11:04;;;;;;;20.77;9.63;;;;;;;;;;778673;180;911314;-66
2023/01/23 03:13:31;;;;;;;14.57;9.63;;;;;;;;;;772610;180;1022893;-64
2023/01/23 03:15:57;;;;;;;19.63;9.83;;;;;;;;;;774251;180;919076;-67
2023/01/23 03:18:23;;;;;;;30.40;11.73;;;;;;;;;;779352;180;810303;-65
2023/01/23 03:20:48;;;;;;;24.63;12.33;;;;;;;;;;768605;181;918674;-65
2023/01/23 03:23:15;;;;;;;17.20;9.35;;;;;;;;;;773126;180;918487;-65
2023/01/23 03:25:42;;;;;;;18.87;8.80;;;;;;;;;;775701;180;816322;-66
2023/01/23 03:30:11;;;;;;;25.00;12.13;;;;;;;;;;764426;181;818245;-67
2023/01/23 03:30:34;;;;;;;16.60;10.80;;;;;;;;;;761837;181;918370;-65
2023/01/23 03:33:00;;;;;;;22.93;14.07;;;;;;;;;;762172;181;912707;-67
2023/01/23 03:35:25;;;;;;;17.77;9.10;;;;;;;;;;769721;180;814716;-66
2023/01/23 03:37:51;;;;;;;22.07;12.73;;;;;;;;;;766466;181;917247;-67
2023/01/23 03:42:49;;;;;;;22.97;11.30;;;;;;;;;;774350;180;877303;-65
2023/01/23 03:45:15;;;;;;;19.70;8.90;;;;;;;;;;762519;180;845839;-67
2023/01/23 03:47:41;;;;;;;18.50;11.52;;;;;;;;;;772151;180;919740;-65
2023/01/23 03:50:07;;;;;;;22.50;11.40;;;;;;;;;;773986;180;917484;-67
2023/01/23 03:52:33;;;;;;;15.93;9.93;;;;;;;;;;762970;183;919014;-66
2023/01/23 03:54:59;;;;;;;21.77;11.80;;;;;;;;;;768835;180;918907;-66
2023/01/23 03:57:24;;;;;;;28.40;14.17;;;;;;;;;;768255;181;920382;-65
2023/01/23 03:59:50;;;;;;;24.70;11.63;;;;;;;;;;775046;181;920084;-66
2023/01/23 04:02:16;;;;;;;20.60;12.18;;;;;;;;;;768821;181;919159;-66
2023/01/23 04:04:42;;;;;;;21.30;10.07;;;;;;;;;;770050;181;918458;-66
2023/01/23 04:07:08;;;;;;;17.17;9.00;;;;;;;;;;778658;180;817187;-66
2023/01/23 04:09:34;;;;;;;24.30;15.00;;;;;;;;;;764685;181;916522;-67
2023/01/23 04:11:59;;;;;;;21.47;10.27;;;;;;;;;;770576;181;815475;-65
2023/01/23 04:14:25;;;;;;;22.43;12.10;;;;;;;;;;778014;181;919103;-66
2023/01/23 04:16:52;;;;;;;15.50;8.37;;;;;;;;;;769767;181;920796;-66
2023/01/23 04:19:18;;;;;;;25.00;13.13;;;;;;;;;;769706;179;952364;-66
2023/01/23 04:21:44;;;;;;;17.87;8.30;;;;;;;;;;769206;180;917366;-68
2023/01/23 04:24:10;;;;;;;28.57;13.50;;;;;;;;;;775583;180;917024;-66
2023/01/23 04:26:36;;;;;;;18.23;9.63;;;;;;;;;;769062;181;919105;-66
2023/01/23 04:29:02;;;;;;;17.37;10.47;;;;;;;;;;770133;180;931376;-67
2023/01/23 04:31:28;;;;;;;26.87;13.80;;;;;;;;;;772843;180;921239;-67
2023/01/23 04:33:53;;;;;;;16.40;10.33;;;;;;;;;;765090;179;919975;-67
2023/01/23 04:36:19;;;;;;;17.27;10.07;;;;;;;;;;767690;180;919291;-67
2023/01/23 04:38:45;;;;;;;20.57;10.90;;;;;;;;;;773788;180;911952;-68
2023/01/23 04:41:16;;;;;;;24.60;15.87;;;;;;;;;;768640;180;919278;-69
2023/01/23 04:43:42;;;;;;;22.30;12.23;;;;;;;;;;769380;180;918309;-67
2023/01/23 04:46:08;;;;;;;25.05;11.63;;;;;;;;;;769552;181;916269;-66
2023/01/23 04:48:34;;;;;;;27.43;13.20;;;;;;;;;;775071;179;818445;-67
2023/01/23 04:51:00;;;;;;;17.50;8.47;;;;;;;;;;773793;180;918824;-68
2023/01/23 04:53:26;;;;;;;18.93;10.77;;;;;;;;;;768422;180;919045;-67
2023/01/23 04:55:51;;;;;;;40.63;27.10;;;;;;;;;;775730;180;854820;-67
2023/01/23 04:58:17;;;;;;;28.20;14.53;;;;;;;;;;775773;179;918825;-66
2023/01/23 05:00:43;;;;;;;20.43;14.47;;;;;;;;;;769805;180;919158;-69
2023/01/23 05:03:09;;;;;;;22.13;13.02;;;;;;;;;;770426;181;816768;-68
2023/01/23 05:05:35;;;;;;;55.60;30.13;;;;;;;;;;774053;180;913547;-67
2023/01/23 05:08:01;;;;;;;65.57;32.73;;;;;;;;;;770513;180;899791;-68
2023/01/23 05:10:27;;;;;;;63.17;33.70;;;;;;;;;;771267;181;921611;-67
2023/01/23 05:12:52;;;;;;;64.47;30.60;;;;;;;;;;773551;181;917616;-65
2023/01/23 05:15:20;;;;;;;35.70;20.52;;;;;;;;;;769531;181;918058;-67
2023/01/23 05:17:44;;;;;;;39.00;25.80;;;;;;;;;;771541;180;661069;-66
2023/01/23 05:20:10;;;;;;;33.37;19.43;;;;;;;;;;778846;179;918844;-66
2023/01/23 05:22:36;;;;;;;53.30;25.00;;;;;;;;;;769891;180;920520;-67
2023/01/23 05:25:02;;;;;;;46.13;21.60;;;;;;;;;;767681;180;918454;-65
2023/01/23 05:27:28;;;;;;;65.07;30.40;;;;;;;;;;771567;180;915077;-67
2023/01/23 05:29:54;;;;;;;42.47;19.23;;;;;;;;;;775427;180;920574;-65
2023/01/23 05:32:20;;;;;;;42.97;27.80;;;;;;;;;;764573;181;959196;-69
2023/01/23 05:34:45;;;;;;;24.27;14.17;;;;;;;;;;768409;181;818849;-66
2023/01/23 05:37:11;;;;;;;25.30;13.63;;;;;;;;;;779797;180;918726;-67
2023/01/23 05:39:37;;;;;;;32.03;13.67;;;;;;;;;;770028;181;1020973;-69
2023/01/23 05:42:03;;;;;;;19.80;14.83;;;;;;;;;;768049;180;918789;-68
2023/01/23 05:44:29;;;;;;;21.30;10.87;;;;;;;;;;765820;182;819166;-68
2023/01/23 05:46:55;;;;;;;20.07;9.67;;;;;;;;;;766338;181;919513;-68
2023/01/23 05:49:21;;;;;;;20.30;11.60;;;;;;;;;;773010;181;810632;-70
2023/01/23 05:51:46;;;;;;;22.53;15.57;;;;;;;;;;775976;181;955600;-70
2023/01/23 05:54:12;;;;;;;23.40;11.20;;;;;;;;;;773229;180;817148;-69
2023/01/23 05:56:38;;;;;;;22.23;13.30;;;;;;;;;;774367;180;918915;-67
2023/01/23 05:59:04;;;;;;;17.47;8.00;;;;;;;;;;770229;181;621724;-69
2023/01/23 06:01:30;;;;;;;21.08;10.88;;;;;;;;;;770875;180;912620;-70
2023/01/23 06:03:56;;;;;;;24.80;12.23;;;;;;;;;;774629;180;920223;-69
2023/01/23 06:06:21;;;;;;;20.40;12.70;;;;;;;;;;775672;180;919612;-67
2023/01/23 06:08:47;;;;;;;19.37;10.40;;;;;;;;;;768092;180;917113;-68
2023/01/23 06:11:13;;;;;;;22.10;8.93;;;;;;;;;;771877;181;942392;-67
2023/01/23 06:13:39;;;;;;;28.80;13.73;;;;;;;;;;771709;181;919007;-67
2023/01/23 06:16:05;;;;;;;20.23;13.87;;;;;;;;;;774111;181;918432;-72
2023/01/23 06:18:31;;;;;;;14.50;10.63;;;;;;;;;;767607;181;918945;-71
2023/01/23 06:20:59;;;;;;;17.97;10.60;;;;;;;;;;771666;181;918326;-71
2023/01/23 06:23:25;;;;;;;13.45;7.45;;;;;;;;;;771149;181;919809;-69
2023/01/23 06:25:50;;;;;;;21.60;10.37;;;;;;;;;;775205;181;818745;-71
2023/01/23 06:28:16;;;;;;;16.40;11.77;;;;;;;;;;771864;180;917889;-73
2023/01/23 06:30:42;;;;;;;26.23;11.90;;;;;;;;;;761939;180;824705;-68
2023/01/23 06:33:08;;;;;;;20.33;11.90;;;;;;;;;;766363;182;829686;-69
2023/01/23 06:35:34;;;;;;;15.98;10.27;;;;;;;;;;762084;182;816702;-74
2023/01/23 06:38:00;;;;;;;16.83;9.20;;;;;;;;;;764036;181;814973;-68
2023/01/23 06:40:25;;;;;;;36.83;25.83;;;;;;;;;;779603;180;817418;-74
2023/01/23 06:42:51;;;;;;;24.03;15.70;;;;;;;;;;773481;180;917381;-69
2023/01/23 06:45:17;;;;;;;18.47;10.10;;;;;;;;;;773062;180;924852;-73
2023/01/23 06:47:43;;;;;;;26.17;16.17;;;;;;;;;;766101;180;864578;-75
2023/01/23 06:50:09;;;;;;;11.70;9.07;;;;;;;;;;780440;180;814381;-68
2023/01/23 06:52:35;;;;;;;9.83;7.93;;;;;;;;;;774076;181;813836;-73
2023/01/23 06:55:01;;;;;;;16.00;9.90;;;;;;;;;;773829;180;866465;-74
2023/01/23 06:57:27;;;;;;;19.17;10.67;;;;;;;;;;775870;181;917328;-71
2023/01/23 06:59:52;;;;;;;20.37;10.43;;;;;;;;;;774601;180;922363;-74
2023/01/23 07:02:18;;;;;;;16.23;10.23;;;;;;;;;;770072;180;918557;-76
2023/01/23 07:04:44;;;;;;;16.77;11.73;;;;;;;;;;767388;182;859127;-70
2023/01/23 07:07:10;;;;;;;23.48;13.75;;;;;;;;;;760640;181;915318;-77
2023/01/23 07:09:36;;;;;;;16.93;10.47;;;;;;;;;;774852;180;915545;-76
2023/01/23 07:12:02;;;;;;;19.93;11.87;;;;;;;;;;772825;179;930468;-75
2023/01/23 07:14:27;;;;;;;23.83;13.80;;;;;;;;;;775213;179;631233;-70
2023/01/23 07:16:54;;;;;;;17.17;10.43;;;;;;;;;;769184;180;623560;-76
2023/01/23 07:19:19;;;;;;;20.00;12.17;;;;;;;;;;770347;180;913415;-71
2023/01/23 07:21:45;;;;;;;17.67;12.07;;;;;;;;;;777914;180;945708;-71
2023/01/23 07:24:11;;;;;;;22.43;15.03;;;;;;;;;;776293;180;808053;-75
2023/01/23 07:26:37;;;;;;;15.63;7.50;;;;;;;;;;775808;180;814947;-71
2023/01/23 07:29:03;;;;;;;13.83;7.77;;;;;;;;;;779756;180;917997;-71
2023/01/23 07:31:29;;;;;;;19.10;8.83;;;;;;;;;;776480;180;713861;-70
2023/01/23 07:33:55;;;;;;;17.27;9.97;;;;;;;;;;762637;180;1020615;-70
2023/01/23 07:36:21;;;;;;;32.50;12.67;;;;;;;;;;778979;180;813682;-70
2023/01/23 07:38:47;;;;;;;28.13;19.53;;;;;;;;;;771450;179;916320;-71
2023/01/23 07:41:12;;;;;;;28.87;20.47;;;;;;;;;;774085;180;780509;-71
2023/01/23 07:43:38;;;;;;;28.77;19.20;;;;;;;;;;766765;180;900802;-70
2023/01/23 07:46:04;;;;;;;19.37;13.13;;;;;;;;;;779816;181;916845;-77
2023/01/23 07:48:30;;;;;;;16.50;10.83;;;;;;;;;;771938;181;918150;-72
2023/01/23 07:50:56;;;;;;;29.73;10.93;;;;;;;;;;778990;179;767320;-69
2023/01/23 07:53:22;;;;;;;20.33;12.97;;;;;;;;;;779448;179;919583;-75
2023/01/23 07:55:48;;;;;;;21.35;11.70;;;;;;;;;;774565;180;918897;-75
2023/01/23 07:58:13;;;;;;;19.93;12.20;;;;;;;;;;775540;180;813887;-75
2023/01/23 08:00:40;;;;;;;22.67;15.30;;;;;;;;;;780093;180;812816;-78
2023/01/23 08:03:06;;;;;;;20.90;12.37;;;;;;;;;;774377;180;816883;-78
2023/01/23 08:05:32;;;;;;;16.47;11.40;;;;;;;;;;772890;180;1018373;-75
2023/01/23 08:07:58;;;;;;;17.97;10.50;;;;;;;;;;772976;180;906218;-72
2023/01/23 08:10:24;;;;;;;15.03;9.20;;;;;;;;;;778090;180;815973;-75
2023/01/23 08:12:50;;;;;;;14.33;9.70;;;;;;;;;;771520;180;1021918;-71
2023/01/23 08:15:16;;;;;;;20.37;10.97;;;;;;;;;;773428;180;918252;-79
2023/01/23 08:17:42;;;;;;;12.80;8.70;;;;;;;;;;778152;180;918043;-77
2023/01/23 08:20:09;;;;;;;15.10;9.10;;;;;;;;;;773288;181;916726;-75
2023/01/23 08:22:36;;;;;;;15.27;12.13;;;;;;;;;;771866;181;990269;-75
2023/01/23 08:25:00;;;;;;;15.27;12.27;;;;;;;;;;779205;179;918622;-69
2023/01/23 08:27:26;;;;;;;25.00;16.53;;;;;;;;;;772191;181;917581;-72
2023/01/23 08:29:51;;;;;;;34.40;23.97;;;;;;;;;;773926;180;1022088;-73
2023/01/23 08:32:17;;;;;;;17.67;11.40;;;;;;;;;;773331;179;914851;-72
2023/01/23 08:34:43;;;;;;;20.33;9.73;;;;;;;;;;773806;180;919274;-72
2023/01/23 08:37:09;;;;;;;21.20;12.53;;;;;;;;;;760335;184;919320;-72
2023/01/23 08:39:35;;;;;;;36.83;22.03;;;;;;;;;;745452;186;943090;-72
2023/01/23 08:42:01;;;;;;;51.10;21.77;;;;;;;;;;736443;189;931978;-70
2023/01/23 08:44:26;;;;;;;17.87;10.17;;;;;;;;;;735961;188;925883;-67
2023/01/23 08:46:52;;;;;;;13.30;11.00;;;;;;;;;;762413;183;917343;-71
2023/01/23 08:49:19;;;;;;;12.93;7.27;;;;;;;;;;768094;180;914990;-67
2023/01/23 08:51:44;;;;;;;14.10;9.60;;;;;;;;;;759749;184;920753;-69
2023/01/23 08:54:10;;;;;;;14.17;8.70;;;;;;;;;;767639;180;920786;-70
2023/01/23 08:56:36;;;;;;;110.70;45.67;;;;;;;;;;773795;179;918038;-72
2023/01/23 08:59:01;;;;;;;22.93;12.50;;;;;;;;;;771484;180;920408;-72
2023/01/23 09:01:27;;;;;;;13.95;8.75;;;;;;;;;;764090;183;820856;-71
2023/01/23 09:03:53;;;;;;;17.80;11.07;;;;;;;;;;767723;180;1000714;-71
2023/01/23 09:06:19;;;;;;;17.87;12.83;;;;;;;;;;767498;182;917842;-70
2023/01/23 09:08:45;;;;;;;21.53;11.47;;;;;;;;;;763661;181;919315;-67
2023/01/23 09:11:11;;;;;;;20.93;13.07;;;;;;;;;;773726;180;919720;-70
2023/01/23 09:13:37;;;;;;;18.40;12.27;;;;;;;;;;778071;180;918925;-70
2023/01/23 09:16:03;;;;;;;21.43;11.27;;;;;;;;;;773108;180;914629;-72
2023/01/23 09:18:28;;;;;;;19.60;11.50;;;;;;;;;;772997;180;917767;-68
2023/01/23 09:20:54;;;;;;;23.37;12.13;;;;;;;;;;766931;180;918432;-67
2023/01/23 09:23:20;;;;;;;21.50;13.50;;;;;;;;;;763202;181;920562;-70
2023/01/23 09:25:46;;;;;;;22.30;12.33;;;;;;;;;;774707;179;622190;-72
2023/01/23 09:28:12;;;;;;;26.80;14.80;;;;;;;;;;771817;180;619094;-70
2023/01/23 09:30:38;;;;;;;23.27;16.30;;;;;;;;;;779303;179;632485;-68
2023/01/23 09:33:03;;;;;;;25.27;15.43;;;;;;;;;;769203;183;634836;-71
2023/01/23 09:35:29;;;;;;;21.67;14.23;;;;;;;;;;767776;179;879040;-70
2023/01/23 09:37:59;;;;;;;34.87;15.60;;;;;;;;;;779234;180;897307;-70
2023/01/23 09:40:27;;;;;;;23.40;14.20;;;;;;;;;;772105;180;910420;-70
2023/01/23 09:42:53;;;;;;;22.47;16.83;;;;;;;;;;770490;179;921505;-70
2023/01/23 09:45:19;;;;;;;25.77;14.87;;;;;;;;;;772759;181;920175;-68
2023/01/23 09:47:44;;;;;;;17.27;9.27;;;;;;;;;;775170;180;915409;-66
2023/01/23 09:50:13;;;;;;;20.33;10.07;;;;;;;;;;769843;180;919919;-69
2023/01/23 09:52:40;;;;;;;16.00;8.77;;;;;;;;;;774011;180;1017238;-66
2023/01/23 09:55:20;;;;;;;13.70;9.13;;;;;;;;;;779182;179;918527;-68
2023/01/23 09:57:47;;;;;;;16.27;6.77;;;;;;;;;;780646;180;911594;-69
2023/01/23 10:00:13;;;;;;;10.68;7.37;;;;;;;;;;773663;180;919004;-69
2023/01/23 10:02:39;;;;;;;16.93;11.93;;;;;;;;;;771699;181;919029;-68
2023/01/23 10:05:12;;;;;;;13.77;8.90;;;;;;;;;;776691;180;816192;-70
2023/01/23 10:07:48;;;;;;;15.93;11.80;;;;;;;;;;771703;182;919545;-71
2023/01/23 10:10:15;;;;;;;49.83;25.80;;;;;;;;;;771076;181;851612;-68
2023/01/23 10:12:44;;;;;;;43.20;25.10;;;;;;;;;;770175;181;912436;-70
2023/01/23 10:15:14;;;;;;;20.60;10.20;;;;;;;;;;771258;181;922635;-66
2023/01/23 10:17:41;;;;;;;13.70;7.60;;;;;;;;;;775874;181;915713;-67
2023/01/23 10:20:12;;;;;;;11.47;7.33;;;;;;;;;;774583;179;920765;-67
2023/01/23 10:22:38;;;;;;;17.87;10.13;;;;;;;;;;775600;180;927014;-67
2023/01/23 10:25:19;;;;;;;12.13;7.70;;;;;;;;;;765488;180;918512;-69
2023/01/23 10:27:46;;;;;;;16.33;8.90;;;;;;;;;;773215;180;919083;-69
2023/01/23 10:30:17;;;;;;;13.50;6.50;;;;;;;;;;780214;180;918124;-69
2023/01/23 10:32:43;;;;;;;17.43;8.50;;;;;;;;;;767080;180;918926;-67
2023/01/23 10:35:12;;;;;;;12.30;7.07;;;;;;;;;;767743;181;919915;-67
2023/01/23 10:37:54;;;;;;;14.55;7.82;;;;;;;;;;759975;180;919725;-70
2023/01/23 10:43:10;;;;;;;19.90;10.37;;;;;;;;;;768730;181;918280;-66
2023/01/23 10:45:36;;;;;;;16.17;10.87;;;;;;;;;;771862;181;919243;-70
2023/01/23 10:48:02;;;;;;;19.63;12.90;;;;;;;;;;764507;182;865407;-66
2023/01/23 10:50:32;;;;;;;22.83;10.47;;;;;;;;;;768937;181;918326;-70
2023/01/23 10:52:58;;;;;;;20.20;9.03;;;;;;;;;;778229;179;918019;-69
2023/01/23 10:55:27;;;;;;;26.67;14.50;;;;;;;;;;774442;181;919519;-69
2023/01/23 10:57:53;;;;;;;11.10;8.93;;;;;;;;;;770686;181;820229;-66
2023/01/23 11:00:20;;;;;;;22.92;12.88;;;;;;;;;;773704;181;916222;-65
2023/01/23 11:02:46;;;;;;;13.43;8.43;;;;;;;;;;777878;180;916566;-66
2023/01/23 11:05:18;;;;;;;24.23;16.80;;;;;;;;;;770322;181;919544;-66
2023/01/23 11:07:44;;;;;;;14.47;9.17;;;;;;;;;;768759;181;919206;-67
2023/01/23 11:10:13;;;;;;;22.07;13.17;;;;;;;;;;768165;181;917859;-70
2023/01/23 11:12:44;;;;;;;22.30;12.27;;;;;;;;;;765024;182;919150;-66
2023/01/23 11:15:16;;;;;;;16.87;10.87;;;;;;;;;;770366;181;919155;-69
2023/01/23 11:17:42;;;;;;;56.83;21.00;;;;;;;;;;769898;181;920203;-66
2023/01/23 11:20:11;;;;;;;29.97;10.87;;;;;;;;;;771791;181;819291;-69
2023/01/23 11:22:37;;;;;;;15.30;10.27;;;;;;;;;;775468;180;816999;-66
2023/01/23 11:25:17;;;;;;;19.97;14.30;;;;;;;;;;777161;180;919663;-69
2023/01/23 11:27:47;;;;;;;20.90;12.03;;;;;;;;;;769072;179;919512;-66
2023/01/23 11:30:20;;;;;;;14.43;8.00;;;;;;;;;;770633;179;1021824;-66
2023/01/23 11:32:46;;;;;;;21.23;13.73;;;;;;;;;;764713;183;919479;-65
2023/01/23 11:35:12;;;;;;;16.20;11.07;;;;;;;;;;764742;183;915953;-66
2023/01/23 11:37:38;;;;;;;18.70;13.17;;;;;;;;;;759230;181;922381;-66
2023/01/23 11:40:06;;;;;;;14.53;7.67;;;;;;;;;;763639;183;918317;-67
2023/01/23 11:42:31;;;;;;;13.25;7.55;;;;;;;;;;761447;182;962906;-66
2023/01/23 11:44:57;;;;;;;18.57;10.73;;;;;;;;;;767300;180;816983;-67
2023/01/23 11:47:29;;;;;;;16.50;10.77;;;;;;;;;;770382;180;816480;-70
2023/01/23 11:50:13;;;;;;;33.10;13.40;;;;;;;;;;764505;182;917033;-68
2023/01/23 11:52:39;;;;;;;15.70;9.87;;;;;;;;;;764657;180;888707;-71
2023/01/23 11:55:11;;;;;;;24.20;15.30;;;;;;;;;;763875;181;1021109;-70
2023/01/23 11:57:43;;;;;;;21.30;10.63;;;;;;;;;;761478;181;919221;-66
2023/01/23 12:00:14;;;;;;;30.23;14.33;;;;;;;;;;767348;180;920677;-71
2023/01/23 12:02:45;;;;;;;29.27;17.73;;;;;;;;;;770984;181;918570;-67
2023/01/23 12:05:13;;;;;;;27.30;14.10;;;;;;;;;;770337;181;925714;-66
2023/01/23 12:07:39;;;;;;;25.17;11.98;;;;;;;;;;771629;182;918824;-66
2023/01/23 12:10:22;;;;;;;28.20;15.77;;;;;;;;;;766417;181;918781;-67
2023/01/23 12:13:04;;;;;;;22.83;9.30;;;;;;;;;;774384;181;915491;-69
2023/01/23 12:15:34;;;;;;;23.20;11.03;;;;;;;;;;769397;180;856332;-67
2023/01/23 12:18:02;;;;;;;18.73;11.43;;;;;;;;;;766768;180;920405;-69
2023/01/23 12:20:34;;;;;;;28.37;13.63;;;;;;;;;;772801;180;927414;-66
2023/01/23 12:23:00;;;;;;;16.53;11.70;;;;;;;;;;779055;179;915201;-67
2023/01/23 12:25:28;;;;;;;25.50;11.50;;;;;;;;;;770504;180;920128;-66
2023/01/23 12:27:56;;;;;;;29.07;13.83;;;;;;;;;;769819;181;918747;-71
2023/01/23 12:30:38;;;;;;;29.00;15.20;;;;;;;;;;772651;180;920462;-67
2023/01/23 12:33:06;;;;;;;26.43;14.00;;;;;;;;;;775644;180;917654;-67
2023/01/23 12:35:31;;;;;;;27.97;12.20;;;;;;;;;;776872;180;815271;-67
2023/01/23 12:38:15;;;;;;;22.03;11.50;;;;;;;;;;772594;181;803601;-67
2023/01/23 12:40:41;;;;;;;31.73;12.90;;;;;;;;;;771020;181;943754;-70
2023/01/23 12:43:17;;;;;;;32.20;13.80;;;;;;;;;;770300;181;930161;-70
2023/01/23 12:45:45;;;;;;;23.93;12.83;;;;;;;;;;769568;181;915980;-70
2023/01/23 12:48:10;;;;;;;19.30;12.57;;;;;;;;;;773319;181;916227;-67
2023/01/23 12:50:35;;;;;;;25.60;15.57;;;;;;;;;;774378;180;919107;-68
2023/01/23 12:53:01;;;;;;;22.73;11.30;;;;;;;;;;768901;180;924371;-68
2023/01/23 12:55:28;;;;;;;21.17;12.90;;;;;;;;;;777234;180;921069;-67
2023/01/23 12:57:53;;;;;;;25.40;13.43;;;;;;;;;;754802;183;916659;-69
2023/01/23 13:00:25;;;;;;;16.27;9.93;;;;;;;;;;760734;181;918404;-70
2023/01/23 13:02:55;;;;;;;30.50;19.10;;;;;;;;;;755691;184;919101;-70
2023/01/23 13:05:21;;;;;;;25.27;13.60;;;;;;;;;;757410;184;920388;-71
2023/01/23 13:07:56;;;;;;;17.77;11.70;;;;;;;;;;741142;188;920754;-69
2023/01/23 13:10:23;;;;;;;23.57;12.10;;;;;;;;;;739005;188;821135;-71
2023/01/23 13:12:49;;;;;;;27.80;14.50;;;;;;;;;;740360;187;918980;-68
2023/01/23 13:15:27;;;;;;;37.03;14.20;;;;;;;;;;760537;183;914806;-72
2023/01/23 13:17:59;;;;;;;24.43;16.23;;;;;;;;;;773090;180;887282;-71
2023/01/23 13:23:15;;;;;;;39.30;21.93;;;;;;;;;;772097;181;918095;-70
2023/01/23 13:25:41;;;;;;;30.37;17.77;;;;;;;;;;773877;179;919957;-70
2023/01/23 13:28:25;;;;;;;26.90;15.97;;;;;;;;;;772282;180;918326;-69
2023/01/23 13:31:06;;;;;;;26.87;14.70;;;;;;;;;;770278;180;920177;-67
2023/01/23 13:33:47;;;;;;;31.30;17.77;;;;;;;;;;769629;180;919915;-70
2023/01/23 13:36:13;;;;;;;23.70;12.80;;;;;;;;;;772371;180;919120;-70
2023/01/23 13:38:41;;;;;;;34.13;17.60;;;;;;;;;;773888;180;917051;-68
2023/01/23 13:41:20;;;;;;;37.35;24.35;;;;;;;;;;773105;179;919286;-71
2023/01/23 13:44:03;;;;;;;41.43;22.30;;;;;;;;;;771415;180;919717;-68
2023/01/23 13:46:35;;;;;;;29.80;15.07;;;;;;;;;;770188;179;919322;-68
2023/01/23 13:51:38;;;;;;;38.40;21.90;;;;;;;;;;768787;181;917706;-68
2023/01/23 13:56:38;;;;;;;55.60;29.00;;;;;;;;;;774253;180;919640;-70
2023/01/23 13:59:03;;;;;;;69.50;46.63;;;;;;;;;;771170;181;827585;-71
2023/01/23 14:06:33;;;;;;;32.23;17.30;;;;;;;;;;774096;181;832548;-68
2023/01/23 14:08:59;;;;;;;35.23;19.67;;;;;;;;;;764922;182;918282;-68
2023/01/23 14:11:25;;;;;;;38.40;20.73;;;;;;;;;;770504;182;819668;-67
2023/01/23 14:13:50;;;;;;;27.83;18.00;;;;;;;;;;776739;179;633662;-67
2023/01/23 14:16:22;;;;;;;53.47;27.17;;;;;;;;;;777234;180;639630;-66
2023/01/23 14:18:43;;;;;;;51.80;28.57;;;;;;;;;;777158;180;642277;-68
2023/01/23 14:21:14;;;;;;;33.92;19.77;;;;;;;;;;772969;178;713547;-65
2023/01/23 14:23:40;;;;;;;32.63;19.03;;;;;;;;;;777680;180;897294;-68
2023/01/23 14:26:06;;;;;;;28.60;16.87;;;;;;;;;;774536;180;906260;-67